WetterOnline ( http://www.wetteronline.de )

Wetter aktuell Wangen

Aktuelles Wetter: Leutkirch-Herlazhofen (671m)

6-stündlich | Neueste Meldungen
Ortszeit Temperatur Wetter
Mo, 19.02. 19:00 -2.2° C bedeckt
Mo, 19.02. 13:00 -1.6° C bedeckt
Mo, 19.02. 7:00 -2.8° C bedeckt
Mo, 19.02. 1:00 -3.5° C wolkenlos
So, 18.02. 19:00 -1.3° C bedeckt
So, 18.02. 13:00 -1.1° C bedeckt
So, 18.02. 7:00 -2.0° C Schneegriesel
So, 18.02. 1:00 -1.7° C leichter Schneefall
Ortszeit Temperatur Wetter
Mo, 19.02. 22:30 -2.6° C bedeckt
Mo, 19.02. 22:20 -2.6° C bedeckt
Mo, 19.02. 22:10 -2.5° C bewölkt
Mo, 19.02. 22:00 -2.6° C gefr. Sprühregen
Mo, 19.02. 21:50 -2.6° C gefr. Sprühregen
Mo, 19.02. 21:40 -2.6° C bedeckt
Mo, 19.02. 21:30 -2.5° C bedeckt
Mo, 19.02. 21:00 -2.5° C bedeckt
Mo, 19.02. 20:30 -2.4° C bewölkt
Mo, 19.02. 20:00 -2.3° C bedeckt
Mo, 19.02. 19:30 -2.3° C bedeckt
Ortszeit Relative Feuchte Sichtweite
Mo, 19.02. 19:00 92% 3.5 km
Mo, 19.02. 13:00 85% 3.9 km
Mo, 19.02. 7:00 92% 4.6 km
Mo, 19.02. 1:00 89% 5.0 km
So, 18.02. 19:00 86% 9 km
So, 18.02. 13:00 85% 5.0 km
So, 18.02. 7:00 94% 3.2 km
So, 18.02. 1:00 95% 2.1 km
Ortszeit Relative Feuchte Sichtweite
Mo, 19.02. 22:30 93% 2.5 km
Mo, 19.02. 22:20 93% -
Mo, 19.02. 22:10 94% -
Mo, 19.02. 22:00 93% 2.5 km
Mo, 19.02. 21:50 93% -
Mo, 19.02. 21:40 93% -
Mo, 19.02. 21:30 93% 2.7 km
Mo, 19.02. 21:00 93% 2.8 km
Mo, 19.02. 20:30 93% 3.1 km
Mo, 19.02. 20:00 91% 3.4 km
Mo, 19.02. 19:30 91% 3.7 km
Ortszeit Niederschlagsmenge Niederschlagsart
Mo, 19.02. 19:00 0.0 l/m2 in 12 Std. -
Mo, 19.02. 13:00 0.0 l/m2 in 6 Std. -
Mo, 19.02. 7:00 0.0 l/m2 in 12 Std. -
Mo, 19.02. 1:00 0.0 l/m2 in 6 Std. -
So, 18.02. 19:00 0.1 l/m2 in 12 Std. -
So, 18.02. 13:00 0.1 l/m2 in 6 Std. Schnee, Sprühregen
So, 18.02. 7:00 4 l/m2 in 12 Std. Schnee
So, 18.02. 1:00 3 l/m2 in 6 Std. Schnee
Ortszeit Niederschlagsmenge Niederschlagsart
Mo, 19.02. 22:30 0.1 l/m2 in 1 Std. Regenschauer
Mo, 19.02. 22:20 keine Meldung -
Mo, 19.02. 22:10 keine Meldung -
Mo, 19.02. 22:00 0.1 l/m2 in 1 Std. Schnee, Sprühregen
Mo, 19.02. 21:50 keine Meldung -
Mo, 19.02. 21:40 keine Meldung -
Mo, 19.02. 21:30 0.0 l/m2 in 1 Std. -
Mo, 19.02. 21:00 0.0 l/m2 in 1 Std. -
Mo, 19.02. 20:30 0.0 l/m2 in 1 Std. -
Mo, 19.02. 20:00 0.0 l/m2 in 1 Std. -
Mo, 19.02. 19:30 0.0 l/m2 in 1 Std. -
Ortszeit Stärke Spitze Richtung
km/h Bft. km/h Grad Sektor
Mo, 19.02. 19:00 0 0 11 - -
Mo, 19.02. 13:00 4 1 11 50° NO
Mo, 19.02. 7:00 6 1 11 40° NO
Mo, 19.02. 1:00 6 1 19 40° NO
So, 18.02. 19:00 11 2 22 60° NO
So, 18.02. 13:00 7 2 11 40° NO
So, 18.02. 7:00 7 2 7 30° NO
So, 18.02. 1:00 2 1 9 350° N
Ortszeit Stärke Spitze Richtung
km/h Bft. km/h Grad Sektor
Mo, 19.02. 22:30 4 1 7 40° NO
Mo, 19.02. 22:20 4 1 - 40° NO
Mo, 19.02. 22:10 6 1 - 60° NO
Mo, 19.02. 22:00 4 1 7 100° O
Mo, 19.02. 21:50 4 1 - 100° O
Mo, 19.02. 21:40 4 1 - 70° O
Mo, 19.02. 21:30 4 1 7 30° NO
Mo, 19.02. 21:00 4 1 7 40° NO
Mo, 19.02. 20:30 4 1 7 40° NO
Mo, 19.02. 20:00 4 1 7 60° NO
Mo, 19.02. 19:30 4 1 7 60° NO
Ortszeit Untergrenze Bedeckung Gattung
total tief tief mittel hoch
Mo, 19.02. 19:00 570 m 8/8 8/8 - - -
Mo, 19.02. 13:00 180 m 8/8 8/8 - - -
Mo, 19.02. 7:00 630 m 8/8 8/8 - - -
Mo, 19.02. 1:00 - 0/8 0/8 - - -
So, 18.02. 19:00 450 m 8/8 8/8 - - -
So, 18.02. 13:00 210 m 8/8 8/8 - - -
So, 18.02. 7:00 90 m 8/8 8/8 - - -
So, 18.02. 1:00 180 m 7/8 7/8 - - -
Ortszeit Bedeckungsgrad in Achtel und Wolkenuntergrenze
Mo, 19.02. 22:30 6(570m) 8(750m)
Mo, 19.02. 22:20 6(570m) 8(750m)
Mo, 19.02. 22:10 7(540m)
Mo, 19.02. 22:00 1(300m) 8(570m)
Mo, 19.02. 21:50 1(300m) 8(570m)
Mo, 19.02. 21:40 8(630m)
Mo, 19.02. 21:30 8(720m)
Mo, 19.02. 21:00 8(840m)
Mo, 19.02. 20:30 7(870m)
Mo, 19.02. 20:00 8(810m) 8(840m)
Mo, 19.02. 19:30 8(810m)
Ortszeit Luftdruck NN (hPa) Tendenz (hPa in 3 Std.)
Mo, 19.02. 19:00 1019 - 0,3
Mo, 19.02. 13:00 1020 - 0,8
Mo, 19.02. 7:00 1022 - 1,1
Mo, 19.02. 1:00 1024 - 1,4
So, 18.02. 19:00 1026 - 0,5
So, 18.02. 13:00 1027 - 0,4
So, 18.02. 7:00 1027 + 0,3
So, 18.02. 1:00 1026 + 2,0
Ortszeit Luftdruck NN (hPa) Tendenz (hPa in 3 Std.)
Mo, 19.02. 22:30 1018 - 0,8
Mo, 19.02. 22:20 1018 keine Meldung
Mo, 19.02. 22:10 1018 keine Meldung
Mo, 19.02. 22:00 1018 - 0,7
Mo, 19.02. 21:50 1018 keine Meldung
Mo, 19.02. 21:40 1018 keine Meldung
Mo, 19.02. 21:30 1018 - 0,7
Mo, 19.02. 21:00 1018 - 0,3
Mo, 19.02. 20:30 1018 - 0,3
Mo, 19.02. 20:00 1018 - 0,4
Mo, 19.02. 19:30 1018 - 0,5
Ortszeit Schneehöhe (cm)
Mo, 19.02. 19:00 4
Mo, 19.02. 13:00 4
Mo, 19.02. 7:00 4
Mo, 19.02. 1:00 4
So, 18.02. 19:00 4
So, 18.02. 13:00 6
So, 18.02. 7:00 6
So, 18.02. 1:00 5
Ortszeit Schneehöhe (cm)
Mo, 19.02. 22:30 4
Mo, 19.02. 22:20 4
Mo, 19.02. 22:10 4
Mo, 19.02. 22:00 4
Mo, 19.02. 21:50 4
Mo, 19.02. 21:40 4
Mo, 19.02. 21:30 4
Mo, 19.02. 21:00 4
Mo, 19.02. 20:30 4
Mo, 19.02. 20:00 4
Mo, 19.02. 19:30 4
Link zu dieser Seite / Seite empfehlen

Das Wetter in ...